Time;durP1;ratioP1;P1;durP2;ratioP2;P2;SDS_P1;SDS_P2;PMS_P1;PMS_P2;Temp;Humidity;BMP_temperature;BMP_pressure;BME280_temperature;BME280_humidity;BME280_pressure;Samples;Min_cycle;Max_cycle;Signal;HPM_P1;HPM_P2
2021/04/06 00:00:00;;;;;;;15.18;9.10;;;;;;;;;;5077534;28;20021;-55
2021/04/06 00:02:27;;;;;;;13.93;8.70;;;;;;;;;;5075379;28;20024;-54
2021/04/06 00:04:55;;;;;;;11.80;8.70;;;;;;;;;;5075863;28;20020;-55
2021/04/06 00:07:23;;;;;;;12.73;8.30;;;;;;;;;;5060945;28;20082;-57
2021/04/06 00:09:51;;;;;;;13.45;8.40;;;;;;;;;;5058219;28;20382;-55
2021/04/06 00:12:19;;;;;;;11.23;8.40;;;;;;;;;;5076221;28;20020;-55
2021/04/06 00:14:45;;;;;;;12.23;8.57;;;;;;;;;;5074734;28;20493;-54
2021/04/06 00:17:13;;;;;;;12.50;8.55;;;;;;;;;;5064424;28;20426;-54
2021/04/06 00:19:42;;;;;;;10.52;8.35;;;;;;;;;;5069630;28;20052;-55
2021/04/06 00:22:09;;;;;;;12.85;8.32;;;;;;;;;;5056143;28;20040;-54
2021/04/06 00:24:37;;;;;;;12.75;8.40;;;;;;;;;;5071205;28;20463;-54
2021/04/06 00:27:21;;;;;;;11.05;7.32;;;;;;;;;;5075270;28;20024;-55
2021/04/06 00:29:57;;;;;;;11.18;7.13;;;;;;;;;;5060429;28;20060;-54
2021/04/06 00:32:27;;;;;;;12.80;8.00;;;;;;;;;;5061516;28;20040;-54
2021/04/06 00:34:58;;;;;;;9.30;7.05;;;;;;;;;;5064049;28;20117;-54
2021/04/06 00:37:25;;;;;;;10.88;7.07;;;;;;;;;;5066530;28;20017;-54
2021/04/06 00:39:57;;;;;;;10.73;7.35;;;;;;;;;;5074967;28;20090;-55
2021/04/06 00:42:26;;;;;;;8.18;6.68;;;;;;;;;;5074075;28;20084;-55
2021/04/06 00:44:53;;;;;;;9.90;6.65;;;;;;;;;;5073751;28;20111;-57
2021/04/06 00:47:26;;;;;;;10.70;8.05;;;;;;;;;;5074643;28;20104;-60
2021/04/06 00:49:54;;;;;;;9.23;7.18;;;;;;;;;;5070576;28;20043;-56
2021/04/06 00:52:21;;;;;;;11.65;7.13;;;;;;;;;;5063994;28;20024;-55
2021/04/06 00:54:52;;;;;;;11.00;7.43;;;;;;;;;;5073361;28;20083;-54
2021/04/06 00:57:18;;;;;;;10.35;6.97;;;;;;;;;;5074196;28;20028;-55
2021/04/06 01:00:03;;;;;;;11.65;6.88;;;;;;;;;;5073606;28;20487;-54
2021/04/06 01:02:29;;;;;;;10.57;6.97;;;;;;;;;;5073876;28;20039;-54
2021/04/06 01:04:55;;;;;;;11.65;7.68;;;;;;;;;;5073309;28;20067;-54
2021/04/06 01:07:22;;;;;;;12.05;6.90;;;;;;;;;;5070299;28;20028;-55
2021/04/06 01:09:51;;;;;;;11.88;7.65;;;;;;;;;;5072752;28;20029;-55
2021/04/06 01:12:18;;;;;;;12.18;7.55;;;;;;;;;;5066911;28;20028;-54
2021/04/06 01:14:45;;;;;;;10.00;6.93;;;;;;;;;;5054995;28;20029;-54
2021/04/06 01:17:12;;;;;;;9.93;7.25;;;;;;;;;;5065531;28;20101;-54
2021/04/06 01:19:39;;;;;;;12.75;7.70;;;;;;;;;;5053137;28;20041;-55
2021/04/06 01:22:06;;;;;;;10.90;7.40;;;;;;;;;;5053591;28;20378;-55
2021/04/06 01:24:32;;;;;;;12.57;7.85;;;;;;;;;;5065859;28;20040;-56
2021/04/06 01:26:59;;;;;;;12.88;7.50;;;;;;;;;;5054840;28;20132;-54
2021/04/06 01:29:26;;;;;;;10.60;7.35;;;;;;;;;;5053308;28;20024;-54
2021/04/06 01:31:55;;;;;;;11.40;8.10;;;;;;;;;;5053403;28;20033;-54
2021/04/06 01:34:22;;;;;;;11.52;8.00;;;;;;;;;;5053753;28;20143;-55
2021/04/06 01:36:50;;;;;;;11.75;8.13;;;;;;;;;;5068449;28;20474;-55
2021/04/06 01:39:17;;;;;;;13.38;7.80;;;;;;;;;;5072635;28;20469;-55
2021/04/06 01:41:47;;;;;;;12.20;8.20;;;;;;;;;;5072873;28;20065;-55
2021/04/06 01:44:14;;;;;;;12.70;8.52;;;;;;;;;;5067133;28;20017;-55
2021/04/06 01:46:43;;;;;;;12.57;7.88;;;;;;;;;;5053113;28;20357;-54
2021/04/06 01:49:09;;;;;;;10.82;7.72;;;;;;;;;;5053974;28;20032;-54
2021/04/06 01:51:36;;;;;;;11.65;7.30;;;;;;;;;;5053058;28;20052;-54
2021/04/06 01:54:04;;;;;;;11.90;7.93;;;;;;;;;;5052638;28;20037;-54
2021/04/06 01:56:32;;;;;;;10.18;7.30;;;;;;;;;;5061804;28;20035;-54
2021/04/06 01:59:03;;;;;;;10.95;7.47;;;;;;;;;;5072566;28;20036;-55
2021/04/06 02:01:29;;;;;;;8.73;7.22;;;;;;;;;;5072930;28;20446;-54
2021/04/06 02:04:01;;;;;;;13.98;8.02;;;;;;;;;;5072415;28;20024;-54
2021/04/06 02:06:32;;;;;;;11.32;7.65;;;;;;;;;;5072580;28;20016;-54
2021/04/06 02:08:59;;;;;;;10.50;7.38;;;;;;;;;;5070615;28;20037;-54
2021/04/06 02:11:28;;;;;;;11.95;8.18;;;;;;;;;;5072872;28;20020;-54
2021/04/06 02:14:03;;;;;;;10.77;6.70;;;;;;;;;;5068858;28;20035;-53
2021/04/06 02:16:40;;;;;;;10.75;7.55;;;;;;;;;;5072443;28;20020;-54
2021/04/06 02:19:06;;;;;;;11.05;7.35;;;;;;;;;;5072544;28;20037;-54
2021/04/06 02:21:33;;;;;;;13.57;7.93;;;;;;;;;;5072057;28;20032;-54
2021/04/06 02:23:59;;;;;;;10.35;6.90;;;;;;;;;;5072464;28;20046;-54
2021/04/06 02:26:25;;;;;;;10.50;7.45;;;;;;;;;;5072223;28;20024;-54
2021/04/06 02:28:54;;;;;;;13.25;6.95;;;;;;;;;;5073429;28;20085;-57
2021/04/06 02:31:20;;;;;;;;;;;;;;;;;;5073669;28;20021;-56
2021/04/06 02:33:46;;;;;;;11.70;8.15;;;;;;;;;;5073550;28;19904;-57
2021/04/06 02:36:13;;;;;;;11.85;7.80;;;;;;;;;;5074804;28;20025;-54
2021/04/06 02:38:43;;;;;;;12.65;7.97;;;;;;;;;;5073995;28;20066;-63
2021/04/06 02:41:11;;;;;;;12.05;7.82;;;;;;;;;;5073454;28;20035;-55
2021/04/06 02:43:41;;;;;;;11.63;7.57;;;;;;;;;;5072547;28;20393;-59
2021/04/06 02:46:07;;;;;;;10.98;6.22;;;;;;;;;;5072734;28;20386;-57
2021/04/06 02:48:34;;;;;;;10.40;6.85;;;;;;;;;;5075703;28;20028;-55
2021/04/06 02:51:00;;;;;;;12.43;7.13;;;;;;;;;;5071770;28;20031;-55
2021/04/06 02:53:26;;;;;;;11.70;7.22;;;;;;;;;;5072190;28;20052;-54
2021/04/06 02:55:53;;;;;;;10.95;7.82;;;;;;;;;;5071943;28;20021;-56
2021/04/06 02:58:19;;;;;;;14.20;7.03;;;;;;;;;;5072168;28;20039;-56
2021/04/06 03:00:45;;;;;;;11.10;6.72;;;;;;;;;;5071349;28;20021;-55
2021/04/06 03:03:24;;;;;;;11.68;7.15;;;;;;;;;;5072062;28;20082;-55
2021/04/06 03:05:50;;;;;;;;;;;;;;;;;;5072388;28;20020;-54
2021/04/06 03:08:28;;;;;;;9.90;6.28;;;;;;;;;;5068980;28;20332;-54
2021/04/06 03:10:55;;;;;;;12.50;6.47;;;;;;;;;;5068928;28;20106;-55
2021/04/06 03:13:23;;;;;;;11.68;7.00;;;;;;;;;;5058799;28;20497;-55
2021/04/06 03:15:49;;;;;;;10.27;6.40;;;;;;;;;;5063727;28;20111;-55
2021/04/06 03:18:15;;;;;;;9.82;6.93;;;;;;;;;;5053073;28;20033;-54
2021/04/06 03:20:42;;;;;;;21.88;9.05;;;;;;;;;;5051766;28;20025;-55
2021/04/06 03:23:09;;;;;;;14.80;7.53;;;;;;;;;;5053509;28;20025;-54
2021/04/06 03:25:36;;;;;;;14.02;8.48;;;;;;;;;;5063273;28;20108;-55
2021/04/06 03:28:09;;;;;;;11.80;7.28;;;;;;;;;;5051520;28;20025;-55
2021/04/06 03:30:36;;;;;;;12.25;6.50;;;;;;;;;;5051499;28;20021;-55
2021/04/06 03:33:06;;;;;;;10.52;6.95;;;;;;;;;;5065053;28;20028;-56
2021/04/06 03:35:33;;;;;;;12.13;6.50;;;;;;;;;;5071476;28;20070;-55
2021/04/06 03:38:00;;;;;;;11.25;6.60;;;;;;;;;;5071849;28;20036;-54
2021/04/06 03:40:30;;;;;;;10.43;6.60;;;;;;;;;;5071066;28;20028;-54
2021/04/06 03:43:09;;;;;;;11.65;6.63;;;;;;;;;;5061098;28;20029;-54
2021/04/06 03:45:35;;;;;;;10.30;7.28;;;;;;;;;;5070528;28;20067;-56
2021/04/06 03:48:01;;;;;;;9.20;6.25;;;;;;;;;;5067769;28;20032;-55
2021/04/06 03:50:33;;;;;;;9.43;6.22;;;;;;;;;;5056750;28;20036;-54
2021/04/06 03:53:01;;;;;;;10.55;6.43;;;;;;;;;;5065342;28;20024;-55
2021/04/06 03:55:27;;;;;;;12.77;6.40;;;;;;;;;;5057668;28;20103;-55
2021/04/06 03:58:01;;;;;;;11.02;6.82;;;;;;;;;;5071558;28;20078;-54
2021/04/06 04:00:27;;;;;;;13.32;7.88;;;;;;;;;;5071062;28;20021;-55
2021/04/06 04:02:53;;;;;;;13.73;8.10;;;;;;;;;;5062595;28;20444;-54
2021/04/06 04:05:19;;;;;;;14.60;8.05;;;;;;;;;;5054623;28;20407;-54
2021/04/06 04:07:45;;;;;;;11.25;6.43;;;;;;;;;;5055213;28;20106;-54
2021/04/06 04:10:12;;;;;;;11.75;6.55;;;;;;;;;;5054188;28;20128;-55
2021/04/06 04:12:38;;;;;;;14.27;7.50;;;;;;;;;;5062903;28;20048;-55
2021/04/06 04:15:05;;;;;;;14.70;7.82;;;;;;;;;;5061091;28;20029;-53
2021/04/06 04:17:31;;;;;;;14.80;7.15;;;;;;;;;;5060413;28;20044;-55
2021/04/06 04:19:57;;;;;;;12.48;7.35;;;;;;;;;;5072396;28;20032;-54
2021/04/06 04:22:23;;;;;;;11.27;6.43;;;;;;;;;;5074870;28;20021;-55
2021/04/06 04:24:49;;;;;;;11.38;6.28;;;;;;;;;;5072767;28;20104;-55
2021/04/06 04:27:15;;;;;;;10.50;6.45;;;;;;;;;;5062575;28;20017;-54
2021/04/06 04:29:42;;;;;;;14.25;7.32;;;;;;;;;;5074970;28;20035;-55
2021/04/06 04:32:13;;;;;;;16.65;9.55;;;;;;;;;;5064037;28;20112;-55
2021/04/06 04:34:39;;;;;;;25.08;12.45;;;;;;;;;;5068719;28;20025;-55
2021/04/06 04:37:05;;;;;;;25.25;13.93;;;;;;;;;;5070359;28;20025;-57
2021/04/06 04:39:31;;;;;;;22.65;13.52;;;;;;;;;;5073908;28;20060;-56
2021/04/06 04:41:57;;;;;;;18.70;12.23;;;;;;;;;;5074676;28;20044;-55
2021/04/06 04:44:23;;;;;;;22.73;13.20;;;;;;;;;;5073801;28;20103;-55
2021/04/06 04:46:49;;;;;;;19.17;13.18;;;;;;;;;;5060032;28;20079;-53
2021/04/06 04:49:15;;;;;;;21.55;14.07;;;;;;;;;;5066841;28;20013;-55
2021/04/06 04:51:41;;;;;;;22.77;13.93;;;;;;;;;;5063782;28;20031;-55
2021/04/06 04:54:07;;;;;;;22.77;14.52;;;;;;;;;;5073799;28;20081;-55
2021/04/06 04:56:33;;;;;;;27.83;15.00;;;;;;;;;;5073966;28;20038;-54
2021/04/06 04:59:00;;;;;;;28.35;15.50;;;;;;;;;;5070092;28;20038;-56
2021/04/06 05:01:26;;;;;;;25.92;14.93;;;;;;;;;;5072698;28;20074;-54
2021/04/06 05:03:52;;;;;;;32.53;17.17;;;;;;;;;;5073873;28;20100;-54
2021/04/06 05:06:18;;;;;;;21.48;14.77;;;;;;;;;;5074170;28;20031;-54
2021/04/06 05:08:44;;;;;;;27.48;16.40;;;;;;;;;;5073273;28;20051;-54
2021/04/06 05:11:10;;;;;;;30.38;17.48;;;;;;;;;;5073425;28;20032;-54
2021/04/06 05:13:36;;;;;;;23.40;15.95;;;;;;;;;;5072563;28;20037;-54
2021/04/06 05:16:02;;;;;;;32.40;17.65;;;;;;;;;;5073854;28;20466;-54
2021/04/06 05:18:28;;;;;;;32.72;17.95;;;;;;;;;;5073522;28;20074;-55
2021/04/06 05:20:54;;;;;;;32.85;18.58;;;;;;;;;;5073455;28;20474;-54
2021/04/06 05:23:22;;;;;;;33.85;21.92;;;;;;;;;;5061551;28;20216;-55
2021/04/06 05:25:48;;;;;;;185.07;108.45;;;;;;;;;;5056906;28;20021;-57
2021/04/06 05:28:14;;;;;;;52.55;33.78;;;;;;;;;;5073921;28;20032;-56
2021/04/06 05:30:40;;;;;;;38.47;24.83;;;;;;;;;;5073187;28;20099;-55
2021/04/06 05:33:07;;;;;;;110.75;94.93;;;;;;;;;;5073131;28;20167;-57
2021/04/06 05:35:33;;;;;;;76.57;57.08;;;;;;;;;;5073260;28;20024;-57
2021/04/06 05:37:59;;;;;;;44.15;26.05;;;;;;;;;;5055403;28;20379;-56
2021/04/06 05:40:25;;;;;;;40.35;25.98;;;;;;;;;;5073571;28;20036;-56
2021/04/06 05:42:52;;;;;;;37.50;23.65;;;;;;;;;;5072810;28;20079;-57
2021/04/06 05:45:21;;;;;;;22.73;14.13;;;;;;;;;;5073065;28;20024;-57
2021/04/06 05:47:51;;;;;;;20.15;12.00;;;;;;;;;;5054676;28;20020;-57
2021/04/06 05:50:17;;;;;;;20.90;11.65;;;;;;;;;;5073069;28;20105;-55
2021/04/06 05:52:44;;;;;;;16.67;9.93;;;;;;;;;;5071033;28;20020;-55
2021/04/06 05:55:10;;;;;;;20.17;10.02;;;;;;;;;;5052347;28;20028;-55
2021/04/06 05:57:37;;;;;;;17.80;9.45;;;;;;;;;;5066809;28;20471;-55
2021/04/06 06:00:05;;;;;;;17.95;9.50;;;;;;;;;;5072712;28;20028;-58
2021/04/06 06:02:31;;;;;;;22.70;10.50;;;;;;;;;;5072664;28;20104;-55
2021/04/06 06:04:57;;;;;;;15.23;8.70;;;;;;;;;;5072295;28;20024;-56
2021/04/06 06:07:24;;;;;;;14.25;8.15;;;;;;;;;;5072746;28;20024;-56
2021/04/06 06:09:50;;;;;;;13.80;8.75;;;;;;;;;;5072199;28;20024;-56
2021/04/06 06:12:20;;;;;;;12.57;7.93;;;;;;;;;;5072673;28;20031;-57
2021/04/06 06:14:51;;;;;;;11.98;7.03;;;;;;;;;;5071449;28;20025;-56
2021/04/06 06:17:17;;;;;;;13.77;7.47;;;;;;;;;;5059129;28;20048;-56
2021/04/06 06:19:44;;;;;;;14.40;8.32;;;;;;;;;;5060722;28;20465;-56
2021/04/06 06:22:12;;;;;;;25.80;12.98;;;;;;;;;;5068013;28;20021;-56
2021/04/06 06:24:40;;;;;;;24.25;14.32;;;;;;;;;;5062149;28;20021;-56
2021/04/06 06:27:48;;;;;;;25.75;15.52;;;;;;;;;;5058850;28;20051;-56
2021/04/06 06:33:11;;;;;;;28.95;17.45;;;;;;;;;;5010646;28;20064;-57
2021/04/06 06:35:37;;;;;;;25.15;16.75;;;;;;;;;;5008039;28;20034;-56
2021/04/06 06:38:19;;;;;;;32.80;15.82;;;;;;;;;;5010176;28;20044;-56
2021/04/06 06:40:45;;;;;;;22.35;14.65;;;;;;;;;;5007730;28;20046;-57
2021/04/06 06:43:12;;;;;;;24.17;14.65;;;;;;;;;;5010092;28;20109;-56
2021/04/06 06:45:39;;;;;;;21.85;14.25;;;;;;;;;;5009816;28;20124;-56
2021/04/06 06:48:05;;;;;;;22.08;9.10;;;;;;;;;;5010250;28;20034;-56
2021/04/06 06:50:31;;;;;;;18.38;8.13;;;;;;;;;;5009945;28;20562;-56
2021/04/06 06:52:58;;;;;;;12.13;3.20;;;;;;;;;;5010609;28;20468;-56
2021/04/06 06:55:25;;;;;;;7.28;2.78;;;;;;;;;;5009712;28;20446;-57
2021/04/06 06:58:00;;;;;;;4.38;2.33;;;;;;;;;;5010043;28;20108;-57
2021/04/06 07:00:26;;;;;;;7.93;3.63;;;;;;;;;;5009686;28;20038;-57
2021/04/06 07:02:53;;;;;;;9.00;2.03;;;;;;;;;;5010207;28;20050;-56
2021/04/06 07:05:23;;;;;;;19.70;7.15;;;;;;;;;;5010071;28;20115;-56
2021/04/06 07:08:09;;;;;;;10.07;2.75;;;;;;;;;;5060635;28;20044;-57
2021/04/06 07:10:36;;;;;;;10.85;1.70;;;;;;;;;;5069086;28;20040;-56
2021/04/06 07:13:02;;;;;;;6.05;1.85;;;;;;;;;;5068158;28;20028;-57
2021/04/06 07:15:29;;;;;;;8.45;1.75;;;;;;;;;;5062276;28;20078;-56
2021/04/06 07:17:59;;;;;;;6.85;1.80;;;;;;;;;;5060373;28;20098;-56
2021/04/06 07:20:26;;;;;;;3.00;1.20;;;;;;;;;;5056207;28;20035;-56
2021/04/06 07:22:55;;;;;;;8.43;2.15;;;;;;;;;;5052089;28;20100;-55
2021/04/06 07:25:21;;;;;;;6.47;2.30;;;;;;;;;;5051455;28;20029;-56
2021/04/06 07:27:48;;;;;;;5.78;2.17;;;;;;;;;;5066027;28;20100;-56
2021/04/06 07:30:14;;;;;;;15.85;8.20;;;;;;;;;;5051461;28;20108;-58
2021/04/06 07:32:41;;;;;;;5.43;3.05;;;;;;;;;;5051868;28;20029;-56
2021/04/06 07:35:08;;;;;;;10.77;2.70;;;;;;;;;;5051460;28;20025;-56
2021/04/06 07:37:38;;;;;;;12.85;4.35;;;;;;;;;;5055419;28;20525;-56
2021/04/06 07:40:06;;;;;;;8.23;2.83;;;;;;;;;;5056840;28;20044;-55
2021/04/06 07:42:32;;;;;;;18.55;14.98;;;;;;;;;;5073076;28;20452;-55
2021/04/06 07:44:58;;;;;;;6.72;3.42;;;;;;;;;;5069268;28;20067;-56
2021/04/06 07:47:38;;;;;;;2.97;2.33;;;;;;;;;;5057696;28;20104;-55
2021/04/06 07:50:05;;;;;;;6.32;2.35;;;;;;;;;;5055698;28;20017;-55
2021/04/06 07:52:31;;;;;;;6.28;2.13;;;;;;;;;;5055435;28;20021;-57
2021/04/06 07:54:57;;;;;;;3.83;2.00;;;;;;;;;;5065872;28;20059;-56
2021/04/06 07:57:41;;;;;;;5.43;1.67;;;;;;;;;;5062669;28;20025;-55
2021/04/06 08:00:07;;;;;;;1.88;1.52;;;;;;;;;;5068443;28;20123;-53
2021/04/06 08:02:34;;;;;;;5.30;1.95;;;;;;;;;;5072470;28;20099;-55
2021/04/06 08:05:00;;;;;;;7.53;3.60;;;;;;;;;;5068349;28;20013;-54
2021/04/06 08:07:26;;;;;;;11.02;2.72;;;;;;;;;;5073153;28;20089;-55
2021/04/06 08:09:52;;;;;;;4.85;2.28;;;;;;;;;;5070403;28;20032;-54
2021/04/06 08:12:22;;;;;;;7.45;2.22;;;;;;;;;;5074767;28;20020;-54
2021/04/06 08:14:53;;;;;;;4.10;2.08;;;;;;;;;;5074609;28;20052;-59
2021/04/06 08:17:42;;;;;;;2.90;1.98;;;;;;;;;;5063042;28;20016;-59
2021/04/06 08:20:08;;;;;;;3.88;2.45;;;;;;;;;;4963962;28;20038;-58
2021/04/06 08:22:43;;;;;;;5.80;2.55;;;;;;;;;;4971251;28;20460;-60
2021/04/06 08:25:21;;;;;;;6.53;2.50;;;;;;;;;;4970476;28;20043;-63
2021/04/06 08:27:51;;;;;;;5.60;2.65;;;;;;;;;;4971008;28;20035;-62
2021/04/06 08:30:21;;;;;;;3.45;2.40;;;;;;;;;;4971580;28;20489;-64
2021/04/06 08:32:59;;;;;;;5.78;1.90;;;;;;;;;;4970276;28;20037;-61
2021/04/06 08:35:47;;;;;;;3.70;1.70;;;;;;;;;;4970419;28;20070;-60
2021/04/06 08:38:23;;;;;;;3.33;1.90;;;;;;;;;;4970078;28;20041;-65
2021/04/06 08:40:50;;;;;;;3.08;2.10;;;;;;;;;;4970592;28;20491;-71
2021/04/06 08:43:18;;;;;;;4.57;2.42;;;;;;;;;;4969885;28;20500;-68
2021/04/06 08:45:56;;;;;;;4.68;2.17;;;;;;;;;;4970773;28;20042;-65
2021/04/06 08:48:40;;;;;;;5.50;2.00;;;;;;;;;;4969317;28;20027;-70
2021/04/06 08:51:18;;;;;;;4.20;1.80;;;;;;;;;;4970927;28;20413;-69
2021/04/06 08:53:44;;;;;;;3.63;2.35;;;;;;;;;;4958133;28;20468;-66
2021/04/06 08:56:14;;;;;;;6.18;2.47;;;;;;;;;;4976137;28;20039;-70
2021/04/06 08:58:40;;;;;;;6.93;2.22;;;;;;;;;;5064459;28;20056;-63
2021/04/06 09:01:06;;;;;;;3.17;1.63;;;;;;;;;;5065347;28;20019;-62
2021/04/06 09:03:33;;;;;;;1.98;1.70;;;;;;;;;;5062361;28;20032;-62
2021/04/06 09:06:12;;;;;;;3.40;1.77;;;;;;;;;;5068568;28;20095;-63
2021/04/06 09:08:38;;;;;;;;;;;;;;;;;;5058918;28;20045;-66
2021/04/06 09:11:05;;;;;;;6.40;2.25;;;;;;;;;;5053265;28;19919;-68
2021/04/06 09:13:31;;;;;;;4.45;1.73;;;;;;;;;;5069968;28;20146;-66
2021/04/06 09:16:00;;;;;;;2.45;1.88;;;;;;;;;;5063343;28;20382;-60
2021/04/06 09:18:26;;;;;;;3.33;1.80;;;;;;;;;;5069509;28;20044;-72
2021/04/06 09:20:52;;;;;;;6.63;2.53;;;;;;;;;;5070785;28;20024;-66
2021/04/06 09:23:18;;;;;;;3.22;2.10;;;;;;;;;;5046487;28;20036;-63
2021/04/06 09:25:44;;;;;;;2.90;1.50;;;;;;;;;;5060992;28;20151;-67
2021/04/06 09:28:14;;;;;;;2.20;1.75;;;;;;;;;;5061596;28;20079;-63
2021/04/06 09:30:44;;;;;;;4.25;2.05;;;;;;;;;;5038334;28;20025;-61
2021/04/06 09:33:16;;;;;;;2.38;1.80;;;;;;;;;;5057541;28;20024;-63
2021/04/06 09:35:47;;;;;;;3.00;1.48;;;;;;;;;;5069828;28;20056;-61
2021/04/06 09:38:16;;;;;;;4.60;1.45;;;;;;;;;;5053021;28;20041;-62
2021/04/06 09:40:42;;;;;;;;;;;;;;;;;;5054342;28;20091;-65
2021/04/06 09:43:08;;;;;;;3.15;1.40;;;;;;;;;;5059313;28;19909;-64
2021/04/06 09:45:35;;;;;;;3.50;2.50;;;;;;;;;;5067261;28;20090;-62
2021/04/06 09:48:01;;;;;;;2.22;1.33;;;;;;;;;;5044317;28;20071;-61
2021/04/06 09:50:27;;;;;;;3.83;1.25;;;;;;;;;;5065681;28;20020;-63
2021/04/06 09:52:54;;;;;;;3.83;1.30;;;;;;;;;;5069828;28;20028;-67
2021/04/06 09:55:21;;;;;;;3.78;1.30;;;;;;;;;;5070713;28;20482;-70
2021/04/06 09:57:48;;;;;;;1.55;1.13;;;;;;;;;;5068663;28;20028;-61
2021/04/06 10:00:16;;;;;;;2.70;1.42;;;;;;;;;;5068747;28;20032;-60
2021/04/06 10:02:45;;;;;;;3.17;1.52;;;;;;;;;;5067362;28;20017;-65
2021/04/06 10:05:24;;;;;;;3.67;1.98;;;;;;;;;;5065784;28;20048;-63
2021/04/06 10:07:50;;;;;;;3.25;1.70;;;;;;;;;;5067837;28;20055;-64
2021/04/06 10:10:21;;;;;;;7.70;2.13;;;;;;;;;;5064585;28;20028;-66
2021/04/06 10:12:48;;;;;;;4.18;2.28;;;;;;;;;;5068316;28;20031;-69
2021/04/06 10:15:18;;;;;;;3.28;1.77;;;;;;;;;;5047631;28;20035;-68
2021/04/06 10:17:44;;;;;;;3.85;1.98;;;;;;;;;;5068516;28;20028;-70
2021/04/06 10:20:12;;;;;;;2.40;1.65;;;;;;;;;;5160797;22;20115;-65
2021/04/06 10:22:44;;;;;;;4.95;1.95;;;;;;;;;;5047040;28;20383;-66
2021/04/06 10:25:10;;;;;;;3.65;1.88;;;;;;;;;;5048408;28;20347;-59
2021/04/06 10:27:57;;;;;;;4.65;2.08;;;;;;;;;;5046996;28;20057;-60
2021/04/06 10:30:32;;;;;;;3.13;1.75;;;;;;;;;;5042653;28;20466;-63
2021/04/06 10:33:07;;;;;;;4.90;1.92;;;;;;;;;;5035180;28;20075;-63
2021/04/06 10:35:34;;;;;;;3.85;1.88;;;;;;;;;;5047099;28;20032;-63
2021/04/06 10:38:01;;;;;;;3.28;2.05;;;;;;;;;;5043855;28;20030;-61
2021/04/06 10:40:27;;;;;;;4.20;2.22;;;;;;;;;;5032968;28;20021;-65
2021/04/06 10:42:55;;;;;;;3.65;1.70;;;;;;;;;;5032422;28;20053;-63
2021/04/06 10:45:22;;;;;;;2.47;1.70;;;;;;;;;;5039990;28;20092;-61
2021/04/06 10:47:52;;;;;;;3.05;1.60;;;;;;;;;;5042669;28;20033;-64
2021/04/06 10:50:26;;;;;;;4.22;2.10;;;;;;;;;;5051316;28;20458;-60
2021/04/06 10:52:52;;;;;;;3.10;2.05;;;;;;;;;;5049427;28;20498;-59
2021/04/06 10:55:19;;;;;;;4.10;1.75;;;;;;;;;;5044962;28;20463;-58
2021/04/06 10:57:52;;;;;;;22.08;9.07;;;;;;;;;;5049975;28;20067;-57
2021/04/06 11:00:20;;;;;;;7.78;2.97;;;;;;;;;;5050037;28;20029;-59
2021/04/06 11:02:46;;;;;;;6.18;3.15;;;;;;;;;;5049864;28;20094;-58
2021/04/06 11:05:12;;;;;;;7.28;2.55;;;;;;;;;;5049246;28;20538;-61
2021/04/06 11:07:39;;;;;;;4.90;2.40;;;;;;;;;;5050558;28;20025;-60
2021/04/06 11:10:06;;;;;;;3.42;2.00;;;;;;;;;;5047261;28;20100;-60
2021/04/06 11:12:32;;;;;;;7.05;2.58;;;;;;;;;;5046128;28;20021;-60
2021/04/06 11:14:58;;;;;;;4.13;2.05;;;;;;;;;;5055998;28;20068;-60
2021/04/06 11:17:24;;;;;;;4.60;2.45;;;;;;;;;;5055947;28;20483;-61
2021/04/06 11:19:54;;;;;;;4.80;2.42;;;;;;;;;;5055401;28;20033;-59
2021/04/06 11:22:20;;;;;;;6.32;3.50;;;;;;;;;;5035700;28;20045;-60
2021/04/06 11:24:48;;;;;;;7.18;2.50;;;;;;;;;;5020220;28;20037;-62
2021/04/06 11:27:17;;;;;;;5.00;2.60;;;;;;;;;;5016267;28;20431;-54
2021/04/06 11:29:44;;;;;;;9.18;3.17;;;;;;;;;;5016703;28;20087;-57
2021/04/06 11:32:11;;;;;;;5.32;2.90;;;;;;;;;;5034053;28;20018;-58
2021/04/06 11:34:37;;;;;;;8.27;3.35;;;;;;;;;;5035642;28;20025;-56
2021/04/06 11:37:04;;;;;;;9.77;3.40;;;;;;;;;;5034620;28;20026;-59
2021/04/06 11:39:33;;;;;;;4.72;2.95;;;;;;;;;;5035480;28;20029;-59
2021/04/06 11:41:59;;;;;;;7.00;2.67;;;;;;;;;;5034953;28;20471;-59
2021/04/06 11:44:25;;;;;;;6.93;2.63;;;;;;;;;;5034912;28;20507;-61
2021/04/06 11:46:52;;;;;;;3.40;2.47;;;;;;;;;;5032379;28;20049;-61
2021/04/06 11:49:19;;;;;;;4.10;2.13;;;;;;;;;;5037558;28;20471;-61
2021/04/06 11:51:45;;;;;;;5.47;2.35;;;;;;;;;;5037740;28;20034;-58
2021/04/06 11:54:14;;;;;;;10.77;3.85;;;;;;;;;;5035212;28;20494;-57
2021/04/06 11:56:40;;;;;;;5.75;3.08;;;;;;;;;;5032473;28;20030;-57
2021/04/06 11:59:07;;;;;;;7.45;3.10;;;;;;;;;;5034989;28;20037;-58
2021/04/06 12:01:33;;;;;;;6.65;2.95;;;;;;;;;;5035174;28;20079;-57
2021/04/06 12:04:00;;;;;;;7.90;2.53;;;;;;;;;;5035071;28;20375;-57
2021/04/06 12:06:26;;;;;;;6.30;2.45;;;;;;;;;;5037289;28;20403;-57
2021/04/06 12:08:52;;;;;;;10.57;2.92;;;;;;;;;;5033059;28;20021;-57
2021/04/06 12:11:18;;;;;;;11.07;2.30;;;;;;;;;;5031583;28;20030;-58
2021/04/06 12:13:44;;;;;;;5.18;2.80;;;;;;;;;;5033759;28;20025;-58
2021/04/06 12:16:10;;;;;;;5.03;2.70;;;;;;;;;;5034645;28;20467;-58
2021/04/06 12:18:37;;;;;;;6.00;2.25;;;;;;;;;;5034579;28;20457;-57
2021/04/06 12:21:04;;;;;;;3.42;2.13;;;;;;;;;;5033188;28;20045;-57
2021/04/06 12:23:30;;;;;;;6.22;2.50;;;;;;;;;;5034075;28;20021;-56
2021/04/06 12:25:56;;;;;;;9.32;3.63;;;;;;;;;;5032404;28;20026;-59
2021/04/06 12:28:22;;;;;;;7.30;2.78;;;;;;;;;;5032686;28;20487;-57
2021/04/06 12:30:49;;;;;;;5.50;2.75;;;;;;;;;;5032751;28;20104;-57
2021/04/06 12:33:15;;;;;;;6.18;3.42;;;;;;;;;;5034924;28;20446;-59
2021/04/06 12:35:41;;;;;;;6.75;2.17;;;;;;;;;;5034138;28;20053;-62
2021/04/06 12:38:07;;;;;;;8.95;2.15;;;;;;;;;;5033371;28;20017;-57
2021/04/06 12:40:33;;;;;;;4.88;3.03;;;;;;;;;;5023593;28;20025;-57
2021/04/06 12:43:00;;;;;;;4.88;2.10;;;;;;;;;;5044134;28;20064;-57
2021/04/06 12:45:26;;;;;;;5.30;2.08;;;;;;;;;;5038445;28;20032;-60
2021/04/06 12:47:52;;;;;;;4.10;2.00;;;;;;;;;;5034365;28;20053;-59
2021/04/06 12:50:20;;;;;;;3.00;2.00;;;;;;;;;;5037300;28;20474;-59
2021/04/06 12:52:46;;;;;;;3.40;2.50;;;;;;;;;;5027829;28;20040;-58
2021/04/06 12:55:13;;;;;;;4.40;1.98;;;;;;;;;;5024378;28;20030;-63
2021/04/06 12:57:39;;;;;;;4.68;2.97;;;;;;;;;;5018764;28;20025;-59
2021/04/06 13:00:06;;;;;;;2.88;1.85;;;;;;;;;;5030554;28;20083;-59
2021/04/06 13:02:33;;;;;;;5.05;2.00;;;;;;;;;;5034213;28;20112;-63
2021/04/06 13:04:59;;;;;;;7.00;2.47;;;;;;;;;;5033154;28;20104;-59
2021/04/06 13:07:26;;;;;;;4.95;2.45;;;;;;;;;;5033880;28;20101;-59
2021/04/06 13:09:52;;;;;;;3.38;2.10;;;;;;;;;;5033487;28;20033;-62
2021/04/06 13:12:20;;;;;;;5.05;2.33;;;;;;;;;;5033620;28;20018;-58
2021/04/06 13:14:46;;;;;;;4.93;2.33;;;;;;;;;;5029893;28;20030;-60
2021/04/06 13:17:12;;;;;;;3.17;2.38;;;;;;;;;;5023154;28;20029;-58
2021/04/06 13:19:38;;;;;;;5.10;3.00;;;;;;;;;;5032624;28;20044;-63
2021/04/06 13:22:05;;;;;;;4.75;2.50;;;;;;;;;;5033056;28;20045;-59
2021/04/06 13:24:31;;;;;;;6.53;3.00;;;;;;;;;;5031692;28;20113;-58
2021/04/06 13:26:58;;;;;;;5.50;3.55;;;;;;;;;;5033548;28;20025;-63
2021/04/06 13:29:24;;;;;;;7.45;4.15;;;;;;;;;;5032668;28;20018;-59
2021/04/06 13:31:50;;;;;;;5.32;3.25;;;;;;;;;;5033823;28;20025;-58
2021/04/06 13:34:16;;;;;;;7.43;3.08;;;;;;;;;;5032021;28;20033;-59
2021/04/06 13:36:43;;;;;;;8.55;3.38;;;;;;;;;;5033258;28;20494;-58
2021/04/06 13:39:10;;;;;;;7.68;4.22;;;;;;;;;;5033550;28;20492;-60
2021/04/06 13:41:36;;;;;;;7.00;2.85;;;;;;;;;;5022693;28;20029;-58
2021/04/06 13:44:03;;;;;;;7.50;4.30;;;;;;;;;;5017952;28;20073;-64
2021/04/06 13:46:29;;;;;;;6.95;3.78;;;;;;;;;;5014467;28;20022;-58
2021/04/06 13:48:55;;;;;;;4.75;3.25;;;;;;;;;;5016977;28;20022;-59
2021/04/06 13:51:22;;;;;;;7.30;3.90;;;;;;;;;;5017558;28;20025;-59
2021/04/06 13:53:48;;;;;;;6.15;4.00;;;;;;;;;;5022378;28;20041;-59
2021/04/06 13:56:14;;;;;;;10.35;3.90;;;;;;;;;;5018377;28;20021;-59
2021/04/06 13:58:40;;;;;;;6.38;3.65;;;;;;;;;;5014310;28;20088;-58
2021/04/06 14:01:06;;;;;;;10.02;5.03;;;;;;;;;;5028965;28;20049;-59
2021/04/06 14:03:32;;;;;;;8.88;3.55;;;;;;;;;;5014185;28;20018;-62
2021/04/06 14:05:58;;;;;;;7.90;4.68;;;;;;;;;;5029307;28;20384;-58
2021/04/06 14:08:24;;;;;;;6.72;3.95;;;;;;;;;;5014957;28;20029;-60
2021/04/06 14:10:50;;;;;;;8.48;3.97;;;;;;;;;;5018039;28;20034;-60
2021/04/06 14:13:17;;;;;;;6.55;3.22;;;;;;;;;;5013946;28;20143;-60
2021/04/06 14:15:44;;;;;;;7.70;3.75;;;;;;;;;;5014311;28;20061;-60
2021/04/06 14:18:11;;;;;;;8.68;4.25;;;;;;;;;;5012780;28;20033;-60
2021/04/06 14:20:38;;;;;;;8.45;3.92;;;;;;;;;;5016762;28;20053;-59
2021/04/06 14:23:05;;;;;;;9.20;3.65;;;;;;;;;;5015600;28;20064;-59
2021/04/06 14:25:31;;;;;;;8.57;3.72;;;;;;;;;;5017242;28;20027;-57
2021/04/06 14:27:58;;;;;;;9.00;4.22;;;;;;;;;;5032006;28;20036;-59
2021/04/06 14:30:29;;;;;;;7.22;3.92;;;;;;;;;;5027417;28;20088;-60
2021/04/06 14:32:56;;;;;;;8.63;4.55;;;;;;;;;;5032682;28;20035;-59
2021/04/06 14:35:22;;;;;;;8.98;4.40;;;;;;;;;;5018750;28;20040;-59
2021/04/06 14:37:49;;;;;;;7.43;3.50;;;;;;;;;;5012970;28;20041;-58
2021/04/06 14:40:16;;;;;;;7.72;3.78;;;;;;;;;;5027158;28;20057;-58
2021/04/06 14:42:42;;;;;;;9.20;4.57;;;;;;;;;;5014871;28;20091;-58